createdAt,value
2023-03-25T01:18:49.090Z,31.37
2023-03-25T01:21:19.782Z,31.47
2023-03-25T01:26:36.181Z,31.55
2023-03-25T01:29:08.316Z,31.59
2023-03-25T01:31:38.545Z,31.64
2023-03-25T01:34:08.844Z,31.65
2023-03-25T01:36:42.430Z,31.67
2023-03-25T01:39:13.464Z,31.69
2023-03-25T01:41:49.735Z,31.73
2023-03-25T01:44:26.872Z,31.76
2023-03-25T01:46:58.682Z,31.79
2023-03-25T01:49:35.477Z,31.79
2023-03-25T01:52:09.870Z,31.81
2023-03-25T01:54:41.593Z,31.84
2023-03-25T01:57:30.727Z,31.86
2023-03-25T02:00:01.130Z,31.86
2023-03-25T02:02:38.936Z,31.88
2023-03-25T02:05:38.701Z,31.93
2023-03-25T02:11:32.443Z,31.93
2023-03-25T02:14:07.586Z,31.94
2023-03-25T02:16:40.477Z,31.96
2023-03-25T02:19:35.485Z,31.99
2023-03-25T02:22:17.171Z,32.00
2023-03-25T02:25:06.710Z,32.01
2023-03-25T02:28:28.014Z,32.04
2023-03-25T02:31:07.816Z,32.05
2023-03-25T02:34:16.343Z,32.06
2023-03-25T02:37:14.191Z,32.08
2023-03-25T02:40:15.039Z,32.09
2023-03-25T02:42:58.398Z,32.09
2023-03-25T02:45:38.608Z,32.12
2023-03-25T02:48:21.040Z,32.11
2023-03-25T02:51:00.995Z,32.13
2023-03-25T02:53:39.750Z,32.14
2023-03-25T02:56:18.466Z,32.14
2023-03-25T02:58:52.165Z,32.16
2023-03-25T03:01:25.146Z,32.15
2023-03-25T03:03:58.133Z,32.17
2023-03-25T03:06:29.451Z,32.17
2023-03-25T03:10:03.150Z,32.17
2023-03-25T03:13:05.329Z,32.15
2023-03-25T03:15:55.413Z,32.17
2023-03-25T03:19:01.066Z,32.19
2023-03-25T03:21:53.825Z,32.19
2023-03-25T03:24:47.248Z,32.19
2023-03-25T03:27:26.158Z,32.20
2023-03-25T03:30:05.166Z,32.22
2023-03-25T03:32:45.849Z,32.22
2023-03-25T03:35:40.828Z,32.23
2023-03-25T03:38:17.024Z,32.23
2023-03-25T03:40:54.423Z,32.24
2023-03-25T03:43:45.415Z,32.24
2023-03-25T03:46:25.105Z,32.23
2023-03-25T03:49:01.098Z,32.22
2023-03-25T03:51:40.143Z,32.25
2023-03-25T03:54:39.789Z,32.25
2023-03-25T03:57:23.446Z,32.26
2023-03-25T04:00:21.597Z,32.26
2023-03-25T04:02:58.858Z,32.27
2023-03-25T04:08:31.475Z,32.28
2023-03-25T04:11:10.323Z,32.33
2023-03-25T04:13:46.029Z,32.35
2023-03-25T04:16:16.527Z,32.42
2023-03-25T04:21:36.425Z,32.58
2023-03-25T04:24:10.568Z,32.71
2023-03-25T04:26:41.024Z,32.85
2023-03-25T04:29:12.448Z,32.77
2023-03-25T04:31:48.986Z,32.88
2023-03-25T04:34:37.587Z,32.83
2023-03-25T04:37:08.237Z,32.89
2023-03-25T04:39:38.635Z,32.88
2023-03-25T04:48:33.579Z,32.97
2023-03-25T04:51:06.130Z,33.02
2023-03-25T04:56:22.256Z,33.12
2023-03-25T05:01:44.580Z,33.15
2023-03-25T05:04:16.828Z,33.18
2023-03-25T05:06:53.598Z,33.30
2023-03-25T05:09:27.535Z,33.27
2023-03-25T05:11:58.804Z,33.24
2023-03-25T05:14:28.707Z,33.20
2023-03-25T05:17:01.713Z,33.26
2023-03-25T05:19:32.035Z,33.14
2023-03-25T05:22:04.806Z,33.20
2023-03-25T05:24:35.237Z,33.20
2023-03-25T05:27:06.213Z,33.27
2023-03-25T05:29:36.630Z,33.31
2023-03-25T05:32:07.902Z,33.32
2023-03-25T05:34:38.214Z,33.41
2023-03-25T05:37:08.588Z,33.44
2023-03-25T05:39:40.432Z,33.50
2023-03-25T05:42:13.167Z,33.53
2023-03-25T05:44:53.609Z,33.51
2023-03-25T05:47:26.748Z,33.52
2023-03-25T05:49:57.012Z,33.53
2023-03-25T05:52:28.106Z,33.53
2023-03-25T05:54:58.341Z,33.53
2023-03-25T05:57:46.883Z,33.53
2023-03-25T06:00:23.565Z,33.64
2023-03-25T06:02:54.884Z,33.76
2023-03-25T06:05:25.854Z,33.75
2023-03-25T06:07:58.621Z,33.72
2023-03-25T06:10:29.295Z,33.70
2023-03-25T06:12:59.465Z,33.71
2023-03-25T06:15:35.752Z,33.81
2023-03-25T06:18:07.047Z,33.85
2023-03-25T06:20:37.494Z,33.91
2023-03-25T06:23:10.026Z,33.88
2023-03-25T06:25:58.641Z,33.90
2023-03-25T06:28:29.111Z,33.96
2023-03-25T06:30:59.607Z,33.98
2023-03-25T06:33:43.174Z,33.96
2023-03-25T06:36:16.262Z,33.91
2023-03-25T06:38:46.972Z,33.97
2023-03-25T06:41:22.745Z,33.95
2023-03-25T06:44:00.314Z,33.88
2023-03-25T06:46:44.921Z,33.87
2023-03-25T06:49:33.553Z,33.86
2023-03-25T06:52:04.117Z,33.87
2023-03-25T06:54:34.955Z,33.91
2023-03-25T06:57:05.165Z,33.98
2023-03-25T06:59:35.474Z,33.92
2023-03-25T07:02:05.856Z,33.99
2023-03-25T07:04:36.394Z,34.03
2023-03-25T07:07:06.575Z,34.07
2023-03-25T07:09:36.892Z,34.19
2023-03-25T07:12:09.106Z,34.26
2023-03-25T07:14:39.897Z,34.17
2023-03-25T07:17:10.940Z,34.24
2023-03-25T07:22:26.643Z,34.24
2023-03-25T07:25:15.107Z,34.23
2023-03-25T07:27:45.421Z,34.24
2023-03-25T07:30:20.293Z,34.30
2023-03-25T07:32:50.664Z,34.24
2023-03-25T07:35:39.397Z,34.22
2023-03-25T07:38:09.907Z,34.25
2023-03-25T07:40:40.422Z,34.23
2023-03-25T07:46:05.828Z,34.34
2023-03-25T07:48:55.211Z,34.40
2023-03-25T07:51:25.906Z,34.55
2023-03-25T07:53:56.305Z,34.58
2023-03-25T07:56:35.645Z,34.60
2023-03-25T07:59:24.513Z,34.61
2023-03-25T08:04:40.138Z,34.55
2023-03-25T08:07:10.599Z,34.57
2023-03-25T08:09:40.908Z,34.61
2023-03-25T08:12:12.074Z,34.64
2023-03-25T08:14:41.968Z,34.70
2023-03-25T08:17:12.074Z,34.68
2023-03-25T08:19:42.271Z,34.66
2023-03-25T08:22:13.373Z,34.59
2023-03-25T08:24:44.022Z,34.60
2023-03-25T08:27:32.414Z,34.60
2023-03-25T08:30:20.910Z,34.68
2023-03-25T08:32:56.790Z,34.70
2023-03-25T08:35:27.379Z,34.78
2023-03-25T08:37:57.734Z,34.76
2023-03-25T08:40:28.057Z,34.68
2023-03-25T08:42:58.152Z,34.66
2023-03-25T08:45:28.366Z,34.74
2023-03-25T08:47:58.892Z,34.74
2023-03-25T08:50:29.736Z,34.77
2023-03-25T08:55:46.496Z,34.77
2023-03-25T08:58:16.780Z,34.80
2023-03-25T09:00:48.135Z,34.75
2023-03-25T09:03:18.628Z,34.81
2023-03-25T09:05:50.823Z,34.79
2023-03-25T09:08:21.596Z,34.77
2023-03-25T09:10:52.168Z,34.72
2023-03-25T09:13:22.679Z,34.71
2023-03-25T09:16:12.105Z,34.57
2023-03-25T09:18:42.824Z,34.63
2023-03-25T09:21:13.012Z,34.69
2023-03-25T09:29:33.242Z,34.72
2023-03-25T09:32:03.528Z,34.67
2023-03-25T09:34:34.729Z,34.64
2023-03-25T09:37:05.785Z,34.69
2023-03-25T09:42:31.230Z,34.71
2023-03-25T09:45:23.415Z,34.62
2023-03-25T09:48:09.213Z,34.63
2023-03-25T09:50:40.377Z,34.70
2023-03-25T09:53:17.149Z,34.69
2023-03-25T09:55:49.477Z,34.68
2023-03-25T09:58:44.385Z,34.64
2023-03-25T10:01:51.470Z,34.60
2023-03-25T10:04:49.878Z,34.62
2023-03-25T10:07:45.951Z,34.55
2023-03-25T10:11:12.639Z,34.54
2023-03-25T10:13:45.797Z,34.59
2023-03-25T10:20:12.106Z,34.53
2023-03-25T10:23:11.456Z,34.53
2023-03-25T10:25:45.778Z,34.54
2023-03-25T10:28:21.979Z,34.52
2023-03-25T10:30:56.536Z,34.51
2023-03-25T10:33:41.711Z,34.51
2023-03-25T10:36:21.614Z,34.44
2023-03-25T10:39:22.179Z,34.43
2023-03-25T10:42:02.795Z,34.46
2023-03-25T10:44:33.534Z,34.39
2023-03-25T10:47:15.602Z,34.37
2023-03-25T10:49:47.623Z,34.28
2023-03-25T10:52:36.040Z,34.29
2023-03-25T10:55:06.603Z,34.30
2023-03-25T10:57:37.466Z,34.30
2023-03-25T11:00:08.932Z,34.31
2023-03-25T11:02:40.056Z,34.28
2023-03-25T11:08:11.922Z,34.11
2023-03-25T11:10:59.871Z,34.09
2023-03-25T11:13:32.097Z,34.15
2023-03-25T11:16:05.965Z,34.15
2023-03-25T11:18:41.103Z,34.20
2023-03-25T11:21:18.291Z,34.19
2023-03-25T11:23:52.415Z,34.17
2023-03-25T11:26:26.712Z,34.09
2023-03-25T11:29:05.125Z,34.12
2023-03-25T11:31:41.154Z,34.05
2023-03-25T11:34:25.699Z,34.03
2023-03-25T11:37:02.184Z,34.04
2023-03-25T11:39:37.623Z,33.98
2023-03-25T11:42:18.640Z,33.98
2023-03-25T11:47:44.460Z,33.86
2023-03-25T11:50:25.377Z,33.89
2023-03-25T11:53:03.121Z,33.91
2023-03-25T11:55:48.486Z,33.86
2023-03-25T11:58:23.858Z,33.79
2023-03-25T12:01:03.398Z,33.77
2023-03-25T12:03:37.472Z,33.78
2023-03-25T12:06:09.617Z,33.84
2023-03-25T12:08:55.307Z,33.78
2023-03-25T12:11:52.814Z,33.75
2023-03-25T12:14:38.646Z,33.75
2023-03-25T12:17:18.199Z,33.58
2023-03-25T12:20:00.375Z,33.56
2023-03-25T12:22:42.778Z,33.48
2023-03-25T12:25:29.457Z,33.52
2023-03-25T12:28:25.615Z,33.50
2023-03-25T12:31:02.212Z,33.53
2023-03-25T12:33:35.423Z,33.44
2023-03-25T12:36:20.436Z,33.34
2023-03-25T12:39:02.805Z,33.29
2023-03-25T12:42:09.969Z,33.18
2023-03-25T12:45:14.235Z,33.13
2023-03-25T12:48:25.800Z,33.12
2023-03-25T12:51:16.902Z,33.08
2023-03-25T12:53:59.257Z,33.02
2023-03-25T12:56:36.753Z,32.97
2023-03-25T12:59:28.409Z,33.02
2023-03-25T13:02:23.305Z,33.05
2023-03-25T13:05:18.338Z,33.07
2023-03-25T13:10:46.253Z,32.96
2023-03-25T13:13:28.524Z,32.97
2023-03-25T13:16:12.397Z,32.93
2023-03-25T13:19:12.081Z,32.89
2023-03-25T13:21:47.665Z,32.79
2023-03-25T13:24:40.993Z,32.79
2023-03-25T13:27:19.551Z,32.72
2023-03-25T13:30:39.914Z,32.69
2023-03-25T13:33:19.899Z,32.69
2023-03-25T13:36:00.418Z,32.71
2023-03-25T13:38:52.023Z,32.57
2023-03-25T13:41:43.713Z,32.61
2023-03-25T13:44:22.818Z,32.60
2023-03-25T13:46:55.676Z,32.60
2023-03-25T13:49:45.786Z,32.45
2023-03-25T13:52:41.947Z,32.32
2023-03-25T13:55:25.442Z,32.27
2023-03-25T13:58:27.059Z,32.32
2023-03-25T14:01:35.603Z,32.33
2023-03-25T14:04:15.421Z,32.39
2023-03-25T14:07:39.856Z,32.36
2023-03-25T14:10:52.450Z,32.41
2023-03-25T14:13:47.922Z,32.49
2023-03-25T14:16:22.001Z,32.57
2023-03-25T14:19:01.125Z,32.67
2023-03-25T14:21:45.073Z,32.74
2023-03-25T14:24:51.889Z,32.82
2023-03-25T14:27:39.894Z,32.77
2023-03-25T14:30:24.604Z,32.71
2023-03-25T14:32:58.840Z,32.65
2023-03-25T14:35:35.513Z,32.68
2023-03-25T14:38:11.708Z,32.87
2023-03-25T14:41:03.507Z,32.96
2023-03-25T14:43:48.915Z,33.06
2023-03-25T14:46:24.166Z,33.12
2023-03-25T14:48:57.026Z,33.13
2023-03-25T14:51:30.779Z,33.19
2023-03-25T14:54:05.978Z,33.15
2023-03-25T14:56:39.652Z,33.13
2023-03-25T14:59:19.781Z,33.17
2023-03-25T15:01:50.846Z,33.21
2023-03-25T15:04:31.858Z,33.18
2023-03-25T15:07:05.242Z,33.23
2023-03-25T15:09:35.744Z,33.21
2023-03-25T15:12:08.131Z,33.20
2023-03-25T15:14:43.038Z,33.22
2023-03-25T15:17:51.561Z,33.17
2023-03-25T15:20:24.875Z,33.18
2023-03-25T15:23:22.796Z,33.18
2023-03-25T15:25:57.081Z,33.20
2023-03-25T15:28:46.244Z,33.18
2023-03-25T15:32:08.786Z,33.22
2023-03-25T15:34:48.045Z,33.20
2023-03-25T15:37:49.274Z,33.24
2023-03-25T15:40:41.819Z,33.22
2023-03-25T15:43:36.245Z,33.15
2023-03-25T15:46:35.662Z,33.16
2023-03-25T15:49:43.974Z,33.06
2023-03-25T15:52:51.196Z,33.09
2023-03-25T15:55:43.975Z,33.13
2023-03-25T15:58:53.584Z,33.08
2023-03-25T16:01:32.461Z,33.03
2023-03-25T16:04:47.755Z,33.05
2023-03-25T16:07:22.304Z,32.99
2023-03-25T16:09:53.772Z,32.94
2023-03-25T16:15:35.125Z,32.86
2023-03-25T16:18:09.137Z,32.83
2023-03-25T16:20:40.547Z,32.80
2023-03-25T16:23:19.520Z,32.79
2023-03-25T16:25:53.984Z,32.77
2023-03-25T16:28:48.672Z,32.75
2023-03-25T16:31:37.461Z,32.73
2023-03-25T16:34:16.544Z,32.74
2023-03-25T16:36:49.068Z,32.73
2023-03-25T16:39:20.804Z,32.71
2023-03-25T16:42:02.116Z,32.70
2023-03-25T16:44:32.217Z,32.70
2023-03-25T16:47:04.553Z,32.67
2023-03-25T16:49:40.338Z,32.67
2023-03-25T16:52:18.143Z,32.67
2023-03-25T16:55:17.684Z,32.67
2023-03-25T16:57:49.091Z,32.65
2023-03-25T17:00:45.661Z,32.61
2023-03-25T17:03:19.981Z,32.63
2023-03-25T17:05:57.130Z,32.63
2023-03-25T17:08:27.656Z,32.63
2023-03-25T17:11:01.862Z,32.60
2023-03-25T17:13:44.234Z,32.62
2023-03-25T17:16:38.435Z,32.62
2023-03-25T17:19:08.857Z,32.61
2023-03-25T17:21:40.744Z,32.61
2023-03-25T17:24:25.351Z,32.63
2023-03-25T17:27:07.790Z,32.61
2023-03-25T17:30:17.002Z,32.60
2023-03-25T17:32:48.103Z,32.58
2023-03-25T17:35:26.471Z,32.57
2023-03-25T17:37:57.250Z,32.56
2023-03-25T17:40:29.188Z,32.55
2023-03-25T17:43:00.411Z,32.54
2023-03-25T17:45:30.742Z,32.54
2023-03-25T17:48:01.001Z,32.56
2023-03-25T17:50:31.318Z,32.55
2023-03-25T17:53:01.983Z,32.53
2023-03-25T17:55:51.338Z,32.52
2023-03-25T17:58:39.776Z,32.52
2023-03-25T18:01:11.145Z,32.50
2023-03-25T18:03:43.516Z,32.52
2023-03-25T18:06:15.311Z,32.49
2023-03-25T18:08:45.602Z,32.48
2023-03-25T18:11:16.356Z,32.48
2023-03-25T18:14:05.043Z,32.48
2023-03-25T18:16:35.619Z,32.47
2023-03-25T18:19:06.485Z,32.47
2023-03-25T18:21:36.845Z,32.46
2023-03-25T18:24:07.053Z,32.49
2023-03-25T18:26:37.741Z,32.48
2023-03-25T18:29:20.441Z,32.47
2023-03-25T18:31:51.098Z,32.47
2023-03-25T18:34:39.623Z,32.46
2023-03-25T18:37:28.080Z,32.43
2023-03-25T18:39:58.433Z,32.42
2023-03-25T18:42:28.938Z,32.44
2023-03-25T18:44:59.168Z,32.41
2023-03-25T18:47:29.671Z,32.41
2023-03-25T18:50:00.245Z,32.41
2023-03-25T18:52:30.664Z,32.38
2023-03-25T18:55:00.807Z,32.40
2023-03-25T18:57:31.118Z,32.40
2023-03-25T19:00:04.454Z,32.42
2023-03-25T19:02:34.999Z,32.41
2023-03-25T19:05:05.483Z,32.41
2023-03-25T19:07:36.754Z,32.41
2023-03-25T19:10:07.489Z,32.41
2023-03-25T19:12:38.209Z,32.45
2023-03-25T19:15:09.161Z,32.42
2023-03-25T19:17:39.586Z,32.43
2023-03-25T19:22:56.875Z,32.44
2023-03-25T19:25:27.408Z,32.41
2023-03-25T19:28:00.796Z,32.41
2023-03-25T19:30:31.919Z,32.40
2023-03-25T19:33:04.257Z,32.40
2023-03-25T19:36:00.431Z,32.38
2023-03-25T19:38:31.056Z,32.39
2023-03-25T19:41:10.408Z,32.40
2023-03-25T19:43:40.883Z,32.36
2023-03-25T19:46:31.653Z,32.39
2023-03-25T19:49:01.786Z,32.39
2023-03-25T19:51:31.773Z,32.40
2023-03-25T19:54:01.975Z,32.40
2023-03-25T19:56:33.294Z,32.41
2023-03-25T19:59:02.954Z,32.38
2023-03-25T20:01:51.967Z,32.39
2023-03-25T20:04:22.118Z,32.41
2023-03-25T20:06:52.356Z,32.40
2023-03-25T20:09:22.764Z,32.38
2023-03-25T20:11:53.102Z,32.39
2023-03-25T20:14:41.701Z,32.34
2023-03-25T20:17:11.982Z,32.35
2023-03-25T20:19:42.314Z,32.34
2023-03-25T20:24:48.918Z,32.33
2023-03-25T20:27:20.137Z,32.32
2023-03-25T20:29:50.301Z,32.33
2023-03-25T20:32:21.640Z,32.34
2023-03-25T20:34:52.298Z,32.32
2023-03-25T20:37:22.727Z,32.30
2023-03-25T20:39:52.851Z,32.32
2023-03-25T20:42:24.077Z,32.34
2023-03-25T20:44:54.203Z,32.33
2023-03-25T20:47:24.394Z,32.34
2023-03-25T20:49:54.980Z,32.33
2023-03-25T20:52:25.353Z,32.32
2023-03-25T20:54:56.459Z,32.35
2023-03-25T20:57:26.792Z,32.31
2023-03-25T21:00:16.835Z,32.34
2023-03-25T21:05:18.455Z,32.33
2023-03-25T21:07:50.213Z,32.31
2023-03-25T21:10:20.694Z,32.29
2023-03-25T21:13:09.259Z,32.28
2023-03-25T21:15:59.791Z,32.31
2023-03-25T21:18:31.564Z,32.27
2023-03-25T21:21:03.791Z,32.27
2023-03-25T21:23:52.469Z,32.29
2023-03-25T21:26:24.351Z,32.29
2023-03-25T21:28:55.340Z,32.27
2023-03-25T21:31:26.371Z,32.28
2023-03-25T21:33:58.619Z,32.27
2023-03-25T21:36:31.277Z,32.29
2023-03-25T21:39:19.685Z,32.27
2023-03-25T21:41:49.759Z,32.27
2023-03-25T21:44:19.885Z,32.26
2023-03-25T21:49:36.752Z,32.27
2023-03-25T21:52:28.730Z,32.24
2023-03-25T21:55:18.682Z,32.24
2023-03-25T21:57:49.895Z,32.19
2023-03-25T22:00:24.692Z,32.18
2023-03-25T22:03:00.816Z,32.20
2023-03-25T22:05:49.285Z,32.20
2023-03-25T22:08:19.541Z,32.22
2023-03-25T22:10:49.575Z,32.22
2023-03-25T22:13:20.085Z,32.20
2023-03-25T22:15:50.405Z,32.19
2023-03-25T22:18:21.572Z,32.18
2023-03-25T22:20:52.474Z,32.18
2023-03-25T22:23:24.316Z,32.19
2023-03-25T22:26:13.653Z,32.17
2023-03-25T22:28:44.507Z,32.17
2023-03-25T22:31:17.389Z,32.15
2023-03-25T22:39:38.347Z,32.19
2023-03-25T22:42:09.303Z,32.18
2023-03-25T22:44:39.588Z,32.19
2023-03-25T22:47:09.695Z,32.18
2023-03-25T22:49:43.243Z,32.16
2023-03-25T22:52:14.588Z,32.15
2023-03-25T22:54:45.190Z,32.12
2023-03-25T22:57:15.942Z,32.10
2023-03-25T22:59:46.107Z,32.13
2023-03-25T23:02:17.855Z,32.11
2023-03-25T23:04:48.693Z,32.12
2023-03-25T23:07:19.370Z,32.11
2023-03-25T23:09:49.934Z,32.10
2023-03-25T23:12:26.285Z,32.09
2023-03-25T23:14:58.488Z,32.11
2023-03-25T23:17:29.179Z,32.10
2023-03-25T23:20:18.877Z,32.11
2023-03-25T23:22:49.047Z,32.10
2023-03-25T23:25:21.201Z,32.09
2023-03-25T23:27:52.835Z,32.10
2023-03-25T23:30:23.298Z,32.09
2023-03-25T23:32:54.563Z,32.10
2023-03-25T23:35:27.900Z,32.04
2023-03-25T23:37:59.160Z,32.09
2023-03-25T23:40:29.452Z,32.05
2023-03-25T23:45:45.674Z,31.98
2023-03-25T23:48:17.094Z,31.93
2023-03-25T23:50:50.323Z,31.92
2023-03-25T23:53:21.277Z,31.88
2023-03-25T23:55:55.523Z,31.89
2023-03-25T23:58:26.010Z,31.92
